sensor_id;sensor_type;location;lat;lon;timestamp;P1;durP1;ratioP1;P2;durP2;ratioP2
12962;SDS011;6546;49.882;8.666;2023-04-15T00:00:15;8.90;;;4.53;;
12962;SDS011;6546;49.882;8.666;2023-04-15T00:02:42;6.97;;;3.93;;
12962;SDS011;6546;49.882;8.666;2023-04-15T00:05:09;5.77;;;3.53;;
12962;SDS011;6546;49.882;8.666;2023-04-15T00:07:37;5.50;;;3.40;;
12962;SDS011;6546;49.882;8.666;2023-04-15T00:10:04;6.50;;;2.90;;
12962;SDS011;6546;49.882;8.666;2023-04-15T00:12:32;6.30;;;2.90;;
12962;SDS011;6546;49.882;8.666;2023-04-15T00:14:58;3.50;;;2.60;;
12962;SDS011;6546;49.882;8.666;2023-04-15T00:17:25;4.27;;;2.70;;
12962;SDS011;6546;49.882;8.666;2023-04-15T00:19:52;3.10;;;2.63;;
12962;SDS011;6546;49.882;8.666;2023-04-15T00:22:18;5.00;;;3.00;;
12962;SDS011;6546;49.882;8.666;2023-04-15T00:24:46;7.70;;;4.00;;
12962;SDS011;6546;49.882;8.666;2023-04-15T00:27:13;8.13;;;4.10;;
12962;SDS011;6546;49.882;8.666;2023-04-15T00:29:40;7.87;;;3.97;;
12962;SDS011;6546;49.882;8.666;2023-04-15T00:32:07;12.40;;;4.10;;
12962;SDS011;6546;49.882;8.666;2023-04-15T00:34:34;9.40;;;4.37;;
12962;SDS011;6546;49.882;8.666;2023-04-15T00:37:01;11.33;;;5.10;;
12962;SDS011;6546;49.882;8.666;2023-04-15T00:39:28;10.47;;;4.73;;
12962;SDS011;6546;49.882;8.666;2023-04-15T00:41:56;13.33;;;5.60;;
12962;SDS011;6546;49.882;8.666;2023-04-15T00:44:23;9.23;;;4.87;;
12962;SDS011;6546;49.882;8.666;2023-04-15T00:46:49;7.60;;;4.50;;
12962;SDS011;6546;49.882;8.666;2023-04-15T00:49:17;9.27;;;4.30;;
12962;SDS011;6546;49.882;8.666;2023-04-15T00:51:44;6.73;;;3.73;;
12962;SDS011;6546;49.882;8.666;2023-04-15T00:54:18;4.83;;;2.47;;
12962;SDS011;6546;49.882;8.666;2023-04-15T00:56:45;4.67;;;2.70;;
12962;SDS011;6546;49.882;8.666;2023-04-15T00:59:13;7.63;;;3.30;;
12962;SDS011;6546;49.882;8.666;2023-04-15T01:01:41;4.90;;;2.97;;
12962;SDS011;6546;49.882;8.666;2023-04-15T01:04:11;9.70;;;4.67;;
12962;SDS011;6546;49.882;8.666;2023-04-15T01:06:37;8.60;;;4.00;;
12962;SDS011;6546;49.882;8.666;2023-04-15T01:09:06;8.70;;;4.70;;
12962;SDS011;6546;49.882;8.666;2023-04-15T01:11:32;8.03;;;3.87;;
12962;SDS011;6546;49.882;8.666;2023-04-15T01:13:59;4.53;;;3.00;;
12962;SDS011;6546;49.882;8.666;2023-04-15T01:16:28;5.10;;;2.80;;
12962;SDS011;6546;49.882;8.666;2023-04-15T01:18:55;6.33;;;4.13;;
12962;SDS011;6546;49.882;8.666;2023-04-15T01:21:21;5.33;;;3.33;;
12962;SDS011;6546;49.882;8.666;2023-04-15T01:23:48;4.80;;;3.00;;
12962;SDS011;6546;49.882;8.666;2023-04-15T01:26:18;5.47;;;3.50;;
12962;SDS011;6546;49.882;8.666;2023-04-15T01:28:45;5.73;;;3.30;;
12962;SDS011;6546;49.882;8.666;2023-04-15T01:31:12;6.97;;;4.90;;
12962;SDS011;6546;49.882;8.666;2023-04-15T01:33:41;11.93;;;8.90;;
12962;SDS011;6546;49.882;8.666;2023-04-15T01:36:08;3.90;;;3.23;;
12962;SDS011;6546;49.882;8.666;2023-04-15T01:38:35;4.10;;;3.50;;
12962;SDS011;6546;49.882;8.666;2023-04-15T01:41:03;8.13;;;4.10;;
12962;SDS011;6546;49.882;8.666;2023-04-15T01:43:32;6.87;;;4.23;;
12962;SDS011;6546;49.882;8.666;2023-04-15T01:46:00;3.83;;;3.20;;
12962;SDS011;6546;49.882;8.666;2023-04-15T01:48:26;3.80;;;3.20;;
12962;SDS011;6546;49.882;8.666;2023-04-15T01:50:53;6.67;;;3.20;;
12962;SDS011;6546;49.882;8.666;2023-04-15T01:53:21;5.03;;;3.00;;
12962;SDS011;6546;49.882;8.666;2023-04-15T01:55:48;4.67;;;2.90;;
12962;SDS011;6546;49.882;8.666;2023-04-15T01:58:15;4.67;;;3.27;;
12962;SDS011;6546;49.882;8.666;2023-04-15T02:00:43;5.10;;;3.53;;
12962;SDS011;6546;49.882;8.666;2023-04-15T02:03:10;4.83;;;3.20;;
12962;SDS011;6546;49.882;8.666;2023-04-15T02:05:36;6.57;;;3.27;;
12962;SDS011;6546;49.882;8.666;2023-04-15T02:08:03;3.67;;;3.00;;
12962;SDS011;6546;49.882;8.666;2023-04-15T02:10:30;5.70;;;2.83;;
12962;SDS011;6546;49.882;8.666;2023-04-15T02:12:56;5.00;;;3.20;;
12962;SDS011;6546;49.882;8.666;2023-04-15T02:15:23;4.37;;;2.77;;
12962;SDS011;6546;49.882;8.666;2023-04-15T02:17:51;3.80;;;3.03;;
12962;SDS011;6546;49.882;8.666;2023-04-15T02:20:19;4.57;;;2.90;;
12962;SDS011;6546;49.882;8.666;2023-04-15T02:22:46;5.27;;;3.40;;
12962;SDS011;6546;49.882;8.666;2023-04-15T02:25:13;7.37;;;4.83;;
12962;SDS011;6546;49.882;8.666;2023-04-15T02:27:40;8.50;;;5.10;;
12962;SDS011;6546;49.882;8.666;2023-04-15T02:30:07;7.40;;;5.30;;
12962;SDS011;6546;49.882;8.666;2023-04-15T02:32:34;10.60;;;5.97;;
12962;SDS011;6546;49.882;8.666;2023-04-15T02:35:03;10.70;;;5.37;;
12962;SDS011;6546;49.882;8.666;2023-04-15T02:37:30;7.07;;;4.97;;
12962;SDS011;6546;49.882;8.666;2023-04-15T02:40:00;5.10;;;4.00;;
12962;SDS011;6546;49.882;8.666;2023-04-15T02:42:27;6.63;;;3.93;;
12962;SDS011;6546;49.882;8.666;2023-04-15T02:44:54;7.10;;;4.57;;
12962;SDS011;6546;49.882;8.666;2023-04-15T02:47:22;6.47;;;4.50;;
12962;SDS011;6546;49.882;8.666;2023-04-15T02:49:48;5.93;;;4.50;;
12962;SDS011;6546;49.882;8.666;2023-04-15T02:52:16;6.30;;;4.33;;
12962;SDS011;6546;49.882;8.666;2023-04-15T02:54:43;5.97;;;4.47;;
12962;SDS011;6546;49.882;8.666;2023-04-15T02:57:09;6.63;;;4.50;;
12962;SDS011;6546;49.882;8.666;2023-04-15T02:59:37;6.13;;;3.97;;
12962;SDS011;6546;49.882;8.666;2023-04-15T03:02:03;6.10;;;4.47;;
12962;SDS011;6546;49.882;8.666;2023-04-15T03:04:31;5.60;;;3.83;;
12962;SDS011;6546;49.882;8.666;2023-04-15T03:06:58;5.87;;;3.93;;
12962;SDS011;6546;49.882;8.666;2023-04-15T03:09:26;6.07;;;4.07;;
12962;SDS011;6546;49.882;8.666;2023-04-15T03:11:53;5.77;;;4.03;;
12962;SDS011;6546;49.882;8.666;2023-04-15T03:14:20;4.83;;;3.60;;
12962;SDS011;6546;49.882;8.666;2023-04-15T03:16:47;6.03;;;4.57;;
12962;SDS011;6546;49.882;8.666;2023-04-15T03:19:14;5.20;;;3.77;;
12962;SDS011;6546;49.882;8.666;2023-04-15T03:21:41;5.97;;;3.80;;
12962;SDS011;6546;49.882;8.666;2023-04-15T03:24:07;6.27;;;4.17;;
12962;SDS011;6546;49.882;8.666;2023-04-15T03:26:35;4.30;;;3.70;;
12962;SDS011;6546;49.882;8.666;2023-04-15T03:29:02;5.27;;;3.73;;
12962;SDS011;6546;49.882;8.666;2023-04-15T03:31:28;5.90;;;3.80;;
12962;SDS011;6546;49.882;8.666;2023-04-15T03:33:55;6.50;;;3.70;;
12962;SDS011;6546;49.882;8.666;2023-04-15T03:36:21;4.53;;;3.77;;
12962;SDS011;6546;49.882;8.666;2023-04-15T03:38:48;7.57;;;3.70;;
12962;SDS011;6546;49.882;8.666;2023-04-15T03:41:14;5.43;;;3.60;;
12962;SDS011;6546;49.882;8.666;2023-04-15T03:43:42;5.53;;;3.40;;
12962;SDS011;6546;49.882;8.666;2023-04-15T03:46:09;5.87;;;3.40;;
12962;SDS011;6546;49.882;8.666;2023-04-15T03:48:35;5.13;;;3.73;;
12962;SDS011;6546;49.882;8.666;2023-04-15T03:51:02;6.37;;;3.50;;
12962;SDS011;6546;49.882;8.666;2023-04-15T03:53:29;5.07;;;3.20;;
12962;SDS011;6546;49.882;8.666;2023-04-15T03:55:55;4.90;;;3.23;;
12962;SDS011;6546;49.882;8.666;2023-04-15T03:58:22;5.07;;;3.57;;
12962;SDS011;6546;49.882;8.666;2023-04-15T04:00:50;5.37;;;3.77;;
12962;SDS011;6546;49.882;8.666;2023-04-15T04:03:16;5.93;;;4.07;;
12962;SDS011;6546;49.882;8.666;2023-04-15T04:05:43;3.93;;;3.53;;
12962;SDS011;6546;49.882;8.666;2023-04-15T04:08:09;5.60;;;4.17;;
12962;SDS011;6546;49.882;8.666;2023-04-15T04:10:37;5.17;;;3.80;;
12962;SDS011;6546;49.882;8.666;2023-04-15T04:13:04;5.10;;;4.23;;
12962;SDS011;6546;49.882;8.666;2023-04-15T04:15:31;6.10;;;4.50;;
12962;SDS011;6546;49.882;8.666;2023-04-15T04:17:58;4.17;;;3.70;;
12962;SDS011;6546;49.882;8.666;2023-04-15T04:20:25;7.03;;;3.87;;
12962;SDS011;6546;49.882;8.666;2023-04-15T04:22:51;4.83;;;3.90;;
12962;SDS011;6546;49.882;8.666;2023-04-15T04:25:18;6.73;;;4.10;;
12962;SDS011;6546;49.882;8.666;2023-04-15T04:27:45;5.43;;;3.93;;
12962;SDS011;6546;49.882;8.666;2023-04-15T04:30:11;4.70;;;3.90;;
12962;SDS011;6546;49.882;8.666;2023-04-15T04:32:38;4.80;;;3.57;;
12962;SDS011;6546;49.882;8.666;2023-04-15T04:35:07;4.83;;;3.47;;
12962;SDS011;6546;49.882;8.666;2023-04-15T04:37:34;3.70;;;3.23;;
12962;SDS011;6546;49.882;8.666;2023-04-15T04:40:00;6.00;;;3.47;;
12962;SDS011;6546;49.882;8.666;2023-04-15T04:42:27;4.23;;;3.37;;
12962;SDS011;6546;49.882;8.666;2023-04-15T04:44:54;6.07;;;3.60;;
12962;SDS011;6546;49.882;8.666;2023-04-15T04:47:20;4.93;;;3.70;;
12962;SDS011;6546;49.882;8.666;2023-04-15T04:49:47;7.03;;;3.73;;
12962;SDS011;6546;49.882;8.666;2023-04-15T04:52:15;5.30;;;3.50;;
12962;SDS011;6546;49.882;8.666;2023-04-15T04:54:41;4.47;;;3.50;;
12962;SDS011;6546;49.882;8.666;2023-04-15T04:57:08;4.37;;;3.60;;
12962;SDS011;6546;49.882;8.666;2023-04-15T04:59:34;7.60;;;3.60;;
12962;SDS011;6546;49.882;8.666;2023-04-15T05:02:01;5.03;;;3.30;;
12962;SDS011;6546;49.882;8.666;2023-04-15T05:04:28;4.20;;;3.53;;
12962;SDS011;6546;49.882;8.666;2023-04-15T05:06:56;3.53;;;3.23;;
12962;SDS011;6546;49.882;8.666;2023-04-15T05:09:24;6.67;;;3.30;;
12962;SDS011;6546;49.882;8.666;2023-04-15T05:11:51;5.57;;;4.50;;
12962;SDS011;6546;49.882;8.666;2023-04-15T05:14:17;5.40;;;4.03;;
12962;SDS011;6546;49.882;8.666;2023-04-15T05:16:44;4.80;;;4.13;;
12962;SDS011;6546;49.882;8.666;2023-04-15T05:19:10;6.17;;;4.10;;
12962;SDS011;6546;49.882;8.666;2023-04-15T05:21:37;4.27;;;3.57;;
12962;SDS011;6546;49.882;8.666;2023-04-15T05:24:04;6.40;;;4.53;;
12962;SDS011;6546;49.882;8.666;2023-04-15T05:26:32;5.60;;;3.97;;
12962;SDS011;6546;49.882;8.666;2023-04-15T05:28:59;4.80;;;3.57;;
12962;SDS011;6546;49.882;8.666;2023-04-15T05:31:26;5.53;;;3.57;;
12962;SDS011;6546;49.882;8.666;2023-04-15T05:33:52;5.00;;;3.90;;
12962;SDS011;6546;49.882;8.666;2023-04-15T05:36:19;6.80;;;3.73;;
12962;SDS011;6546;49.882;8.666;2023-04-15T05:38:45;5.00;;;3.90;;
12962;SDS011;6546;49.882;8.666;2023-04-15T05:41:12;5.87;;;3.67;;
12962;SDS011;6546;49.882;8.666;2023-04-15T05:43:41;5.37;;;4.03;;
12962;SDS011;6546;49.882;8.666;2023-04-15T05:46:07;6.43;;;4.10;;
12962;SDS011;6546;49.882;8.666;2023-04-15T05:48:34;5.43;;;4.40;;
12962;SDS011;6546;49.882;8.666;2023-04-15T05:51:00;5.60;;;4.63;;
12962;SDS011;6546;49.882;8.666;2023-04-15T05:53:27;5.10;;;4.37;;
12962;SDS011;6546;49.882;8.666;2023-04-15T05:55:53;5.60;;;4.03;;
12962;SDS011;6546;49.882;8.666;2023-04-15T05:58:20;6.73;;;4.47;;
12962;SDS011;6546;49.882;8.666;2023-04-15T06:00:48;5.00;;;4.13;;
12962;SDS011;6546;49.882;8.666;2023-04-15T06:03:14;4.93;;;4.10;;
12962;SDS011;6546;49.882;8.666;2023-04-15T06:05:41;5.37;;;4.33;;
12962;SDS011;6546;49.882;8.666;2023-04-15T06:08:09;4.97;;;3.90;;
12962;SDS011;6546;49.882;8.666;2023-04-15T06:10:36;4.83;;;3.93;;
12962;SDS011;6546;49.882;8.666;2023-04-15T06:13:02;7.50;;;3.87;;
12962;SDS011;6546;49.882;8.666;2023-04-15T06:15:29;4.13;;;3.70;;
12962;SDS011;6546;49.882;8.666;2023-04-15T06:17:57;5.87;;;3.63;;
12962;SDS011;6546;49.882;8.666;2023-04-15T06:20:24;7.30;;;3.20;;
12962;SDS011;6546;49.882;8.666;2023-04-15T06:22:51;3.83;;;3.40;;
12962;SDS011;6546;49.882;8.666;2023-04-15T06:25:17;4.63;;;3.57;;
12962;SDS011;6546;49.882;8.666;2023-04-15T06:27:44;4.63;;;3.57;;
12962;SDS011;6546;49.882;8.666;2023-04-15T06:30:10;5.47;;;3.63;;
12962;SDS011;6546;49.882;8.666;2023-04-15T06:32:37;5.23;;;4.10;;
12962;SDS011;6546;49.882;8.666;2023-04-15T06:35:05;5.27;;;3.77;;
12962;SDS011;6546;49.882;8.666;2023-04-15T06:37:32;5.17;;;3.80;;
12962;SDS011;6546;49.882;8.666;2023-04-15T06:39:59;4.83;;;3.57;;
12962;SDS011;6546;49.882;8.666;2023-04-15T06:42:26;4.97;;;4.30;;
12962;SDS011;6546;49.882;8.666;2023-04-15T06:44:52;5.63;;;4.67;;
12962;SDS011;6546;49.882;8.666;2023-04-15T06:47:19;6.57;;;5.00;;
12962;SDS011;6546;49.882;8.666;2023-04-15T06:49:45;6.63;;;5.10;;
12962;SDS011;6546;49.882;8.666;2023-04-15T06:52:13;6.63;;;5.20;;
12962;SDS011;6546;49.882;8.666;2023-04-15T06:54:40;8.07;;;5.10;;
12962;SDS011;6546;49.882;8.666;2023-04-15T06:57:07;7.30;;;5.60;;
12962;SDS011;6546;49.882;8.666;2023-04-15T06:59:34;6.40;;;5.07;;
12962;SDS011;6546;49.882;8.666;2023-04-15T07:02:01;10.73;;;5.40;;
12962;SDS011;6546;49.882;8.666;2023-04-15T07:04:27;11.10;;;5.10;;
12962;SDS011;6546;49.882;8.666;2023-04-15T07:06:54;8.93;;;5.23;;
12962;SDS011;6546;49.882;8.666;2023-04-15T07:09:22;12.73;;;5.57;;
12962;SDS011;6546;49.882;8.666;2023-04-15T07:11:49;9.33;;;5.87;;
12962;SDS011;6546;49.882;8.666;2023-04-15T07:14:16;7.73;;;5.70;;
12962;SDS011;6546;49.882;8.666;2023-04-15T07:16:43;8.77;;;5.43;;
12962;SDS011;6546;49.882;8.666;2023-04-15T07:19:10;6.87;;;5.17;;
12962;SDS011;6546;49.882;8.666;2023-04-15T07:21:36;6.80;;;5.57;;
12962;SDS011;6546;49.882;8.666;2023-04-15T07:24:03;8.27;;;6.30;;
12962;SDS011;6546;49.882;8.666;2023-04-15T07:26:32;8.53;;;5.50;;
12962;SDS011;6546;49.882;8.666;2023-04-15T07:28:58;6.73;;;6.03;;
12962;SDS011;6546;49.882;8.666;2023-04-15T07:31:25;7.47;;;6.07;;
12962;SDS011;6546;49.882;8.666;2023-04-15T07:33:51;6.90;;;6.20;;
12962;SDS011;6546;49.882;8.666;2023-04-15T07:36:18;10.47;;;6.13;;
12962;SDS011;6546;49.882;8.666;2023-04-15T07:38:44;7.47;;;5.63;;
12962;SDS011;6546;49.882;8.666;2023-04-15T07:41:11;8.10;;;6.87;;
12962;SDS011;6546;49.882;8.666;2023-04-15T07:43:39;9.43;;;6.23;;
12962;SDS011;6546;49.882;8.666;2023-04-15T07:46:06;8.03;;;6.63;;
12962;SDS011;6546;49.882;8.666;2023-04-15T07:48:32;7.57;;;6.03;;
12962;SDS011;6546;49.882;8.666;2023-04-15T07:50:59;9.57;;;6.80;;
12962;SDS011;6546;49.882;8.666;2023-04-15T07:53:26;8.53;;;6.90;;
12962;SDS011;6546;49.882;8.666;2023-04-15T07:55:53;8.73;;;7.30;;
12962;SDS011;6546;49.882;8.666;2023-04-15T07:58:20;8.97;;;6.80;;
12962;SDS011;6546;49.882;8.666;2023-04-15T08:00:47;7.70;;;6.90;;
12962;SDS011;6546;49.882;8.666;2023-04-15T08:03:14;7.93;;;6.57;;
12962;SDS011;6546;49.882;8.666;2023-04-15T08:05:41;6.83;;;6.13;;
12962;SDS011;6546;49.882;8.666;2023-04-15T08:08:07;8.50;;;6.40;;
12962;SDS011;6546;49.882;8.666;2023-04-15T08:10:34;8.37;;;6.80;;
12962;SDS011;6546;49.882;8.666;2023-04-15T08:13:01;9.23;;;7.20;;
12962;SDS011;6546;49.882;8.666;2023-04-15T08:15:27;9.37;;;6.80;;
12962;SDS011;6546;49.882;8.666;2023-04-15T08:17:55;10.30;;;7.53;;
12962;SDS011;6546;49.882;8.666;2023-04-15T08:20:22;8.10;;;7.27;;
12962;SDS011;6546;49.882;8.666;2023-04-15T08:22:48;9.67;;;7.47;;
12962;SDS011;6546;49.882;8.666;2023-04-15T08:25:16;11.10;;;7.87;;
12962;SDS011;6546;49.882;8.666;2023-04-15T08:27:43;11.73;;;7.80;;
12962;SDS011;6546;49.882;8.666;2023-04-15T08:30:09;8.83;;;7.20;;
12962;SDS011;6546;49.882;8.666;2023-04-15T08:32:37;11.37;;;8.60;;
12962;SDS011;6546;49.882;8.666;2023-04-15T08:35:05;11.27;;;8.03;;
12962;SDS011;6546;49.882;8.666;2023-04-15T08:37:32;7.90;;;7.13;;
12962;SDS011;6546;49.882;8.666;2023-04-15T08:39:59;9.43;;;7.57;;
12962;SDS011;6546;49.882;8.666;2023-04-15T08:42:27;8.07;;;7.00;;
12962;SDS011;6546;49.882;8.666;2023-04-15T08:44:57;7.70;;;6.17;;
12962;SDS011;6546;49.882;8.666;2023-04-15T08:47:25;7.13;;;5.90;;
12962;SDS011;6546;49.882;8.666;2023-04-15T08:49:55;6.60;;;5.50;;
12962;SDS011;6546;49.882;8.666;2023-04-15T08:52:25;9.27;;;5.10;;
12962;SDS011;6546;49.882;8.666;2023-04-15T08:54:52;6.80;;;5.17;;
12962;SDS011;6546;49.882;8.666;2023-04-15T08:57:22;7.27;;;5.23;;
12962;SDS011;6546;49.882;8.666;2023-04-15T08:59:51;5.30;;;4.63;;
12962;SDS011;6546;49.882;8.666;2023-04-15T09:02:18;5.13;;;4.47;;
12962;SDS011;6546;49.882;8.666;2023-04-15T09:04:45;5.47;;;4.33;;
12962;SDS011;6546;49.882;8.666;2023-04-15T09:07:12;4.20;;;3.80;;
12962;SDS011;6546;49.882;8.666;2023-04-15T09:09:40;4.00;;;3.60;;
12962;SDS011;6546;49.882;8.666;2023-04-15T09:12:07;7.13;;;4.20;;
12962;SDS011;6546;49.882;8.666;2023-04-15T09:14:34;5.40;;;3.33;;
12962;SDS011;6546;49.882;8.666;2023-04-15T09:17:01;4.83;;;3.27;;
12962;SDS011;6546;49.882;8.666;2023-04-15T09:19:29;3.60;;;3.30;;
12962;SDS011;6546;49.882;8.666;2023-04-15T09:21:58;5.40;;;3.50;;
12962;SDS011;6546;49.882;8.666;2023-04-15T09:24:27;6.83;;;3.40;;
12962;SDS011;6546;49.882;8.666;2023-04-15T09:27:02;6.00;;;2.80;;
12962;SDS011;6546;49.882;8.666;2023-04-15T09:29:29;3.57;;;3.10;;
12962;SDS011;6546;49.882;8.666;2023-04-15T09:31:56;4.57;;;2.40;;
12962;SDS011;6546;49.882;8.666;2023-04-15T09:34:34;2.70;;;2.50;;
12962;SDS011;6546;49.882;8.666;2023-04-15T09:37:01;4.13;;;2.10;;
12962;SDS011;6546;49.882;8.666;2023-04-15T09:39:29;2.93;;;2.07;;
12962;SDS011;6546;49.882;8.666;2023-04-15T09:42:12;5.23;;;1.90;;
12962;SDS011;6546;49.882;8.666;2023-04-15T09:44:39;3.23;;;1.93;;
12962;SDS011;6546;49.882;8.666;2023-04-15T09:47:06;4.47;;;2.20;;
12962;SDS011;6546;49.882;8.666;2023-04-15T09:49:32;3.33;;;2.10;;
12962;SDS011;6546;49.882;8.666;2023-04-15T09:51:59;3.47;;;1.70;;
12962;SDS011;6546;49.882;8.666;2023-04-15T09:54:31;2.83;;;1.80;;
12962;SDS011;6546;49.882;8.666;2023-04-15T09:57:03;2.47;;;2.00;;
12962;SDS011;6546;49.882;8.666;2023-04-15T09:59:32;4.77;;;2.00;;
12962;SDS011;6546;49.882;8.666;2023-04-15T10:01:59;2.37;;;1.90;;
12962;SDS011;6546;49.882;8.666;2023-04-15T10:04:29;2.47;;;1.77;;
12962;SDS011;6546;49.882;8.666;2023-04-15T10:06:58;6.27;;;2.90;;
12962;SDS011;6546;49.882;8.666;2023-04-15T10:09:26;6.47;;;2.17;;
12962;SDS011;6546;49.882;8.666;2023-04-15T10:11:53;3.10;;;2.20;;
12962;SDS011;6546;49.882;8.666;2023-04-15T10:14:21;2.40;;;2.13;;
12962;SDS011;6546;49.882;8.666;2023-04-15T10:16:52;3.00;;;2.23;;
12962;SDS011;6546;49.882;8.666;2023-04-15T10:19:23;2.70;;;2.10;;
12962;SDS011;6546;49.882;8.666;2023-04-15T10:21:52;2.80;;;1.90;;
12962;SDS011;6546;49.882;8.666;2023-04-15T10:24:20;2.20;;;2.00;;
12962;SDS011;6546;49.882;8.666;2023-04-15T10:26:49;2.43;;;1.97;;
12962;SDS011;6546;49.882;8.666;2023-04-15T10:29:16;4.93;;;2.40;;
12962;SDS011;6546;49.882;8.666;2023-04-15T10:31:43;2.87;;;1.97;;
12962;SDS011;6546;49.882;8.666;2023-04-15T10:34:12;3.47;;;2.30;;
12962;SDS011;6546;49.882;8.666;2023-04-15T10:36:40;2.63;;;2.43;;
12962;SDS011;6546;49.882;8.666;2023-04-15T10:39:20;2.60;;;2.40;;
12962;SDS011;6546;49.882;8.666;2023-04-15T10:42:04;4.27;;;2.60;;
12962;SDS011;6546;49.882;8.666;2023-04-15T10:44:32;3.00;;;2.33;;
12962;SDS011;6546;49.882;8.666;2023-04-15T10:46:58;4.43;;;2.10;;
12962;SDS011;6546;49.882;8.666;2023-04-15T10:49:26;2.60;;;2.40;;
12962;SDS011;6546;49.882;8.666;2023-04-15T10:51:56;2.20;;;2.00;;
12962;SDS011;6546;49.882;8.666;2023-04-15T10:54:29;3.07;;;2.10;;
12962;SDS011;6546;49.882;8.666;2023-04-15T10:57:05;2.43;;;1.83;;
12962;SDS011;6546;49.882;8.666;2023-04-15T10:59:35;2.00;;;1.80;;
12962;SDS011;6546;49.882;8.666;2023-04-15T11:02:03;2.43;;;1.80;;
12962;SDS011;6546;49.882;8.666;2023-04-15T11:04:51;2.67;;;2.10;;
12962;SDS011;6546;49.882;8.666;2023-04-15T11:07:35;1.80;;;1.70;;
12962;SDS011;6546;49.882;8.666;2023-04-15T11:10:03;1.97;;;1.50;;
12962;SDS011;6546;49.882;8.666;2023-04-15T11:12:57;2.00;;;1.77;;
12962;SDS011;6546;49.882;8.666;2023-04-15T11:15:26;2.70;;;1.87;;
12962;SDS011;6546;49.882;8.666;2023-04-15T11:17:54;2.23;;;1.43;;
12962;SDS011;6546;49.882;8.666;2023-04-15T11:20:23;3.83;;;1.60;;
12962;SDS011;6546;49.882;8.666;2023-04-15T11:22:51;3.10;;;1.63;;
12962;SDS011;6546;49.882;8.666;2023-04-15T11:25:21;3.10;;;1.70;;
12962;SDS011;6546;49.882;8.666;2023-04-15T11:27:49;3.10;;;1.63;;
12962;SDS011;6546;49.882;8.666;2023-04-15T11:30:19;2.90;;;1.60;;
12962;SDS011;6546;49.882;8.666;2023-04-15T11:32:47;3.07;;;2.10;;
12962;SDS011;6546;49.882;8.666;2023-04-15T11:35:14;2.33;;;2.13;;
12962;SDS011;6546;49.882;8.666;2023-04-15T11:37:43;4.13;;;2.10;;
12962;SDS011;6546;49.882;8.666;2023-04-15T11:40:10;2.00;;;1.87;;
12962;SDS011;6546;49.882;8.666;2023-04-15T11:42:39;3.00;;;2.03;;
12962;SDS011;6546;49.882;8.666;2023-04-15T11:45:06;2.47;;;2.10;;
12962;SDS011;6546;49.882;8.666;2023-04-15T11:47:33;2.67;;;1.90;;
12962;SDS011;6546;49.882;8.666;2023-04-15T11:50:12;2.47;;;2.27;;
12962;SDS011;6546;49.882;8.666;2023-04-15T11:52:40;2.23;;;1.83;;
12962;SDS011;6546;49.882;8.666;2023-04-15T11:55:08;2.27;;;2.07;;
12962;SDS011;6546;49.882;8.666;2023-04-15T11:57:35;3.37;;;2.13;;
12962;SDS011;6546;49.882;8.666;2023-04-15T12:00:02;2.43;;;2.23;;
12962;SDS011;6546;49.882;8.666;2023-04-15T12:02:30;4.60;;;2.33;;
12962;SDS011;6546;49.882;8.666;2023-04-15T12:05:01;3.93;;;2.30;;
12962;SDS011;6546;49.882;8.666;2023-04-15T12:07:29;2.30;;;2.10;;
12962;SDS011;6546;49.882;8.666;2023-04-15T12:09:56;2.53;;;2.00;;
12962;SDS011;6546;49.882;8.666;2023-04-15T12:12:26;2.83;;;1.90;;
12962;SDS011;6546;49.882;8.666;2023-04-15T12:14:55;1.33;;;1.23;;
12962;SDS011;6546;49.882;8.666;2023-04-15T12:17:23;1.53;;;1.10;;
12962;SDS011;6546;49.882;8.666;2023-04-15T12:19:54;2.23;;;1.50;;
12962;SDS011;6546;49.882;8.666;2023-04-15T12:22:21;1.53;;;1.00;;
12962;SDS011;6546;49.882;8.666;2023-04-15T12:24:53;2.60;;;1.60;;
12962;SDS011;6546;49.882;8.666;2023-04-15T12:27:24;4.53;;;1.60;;
12962;SDS011;6546;49.882;8.666;2023-04-15T12:29:56;4.33;;;2.00;;
12962;SDS011;6546;49.882;8.666;2023-04-15T12:32:29;3.20;;;1.70;;
12962;SDS011;6546;49.882;8.666;2023-04-15T12:35:01;2.17;;;1.57;;
12962;SDS011;6546;49.882;8.666;2023-04-15T12:37:27;5.60;;;4.57;;
12962;SDS011;6546;49.882;8.666;2023-04-15T12:39:54;4.17;;;3.60;;
12962;SDS011;6546;49.882;8.666;2023-04-15T12:42:20;4.13;;;2.70;;
12962;SDS011;6546;49.882;8.666;2023-04-15T12:44:51;3.63;;;2.30;;
12962;SDS011;6546;49.882;8.666;2023-04-15T12:47:18;3.00;;;2.70;;
12962;SDS011;6546;49.882;8.666;2023-04-15T12:49:44;4.00;;;2.63;;
12962;SDS011;6546;49.882;8.666;2023-04-15T12:52:11;3.73;;;3.07;;
12962;SDS011;6546;49.882;8.666;2023-04-15T12:54:37;3.00;;;2.70;;
12962;SDS011;6546;49.882;8.666;2023-04-15T12:57:04;2.90;;;2.70;;
12962;SDS011;6546;49.882;8.666;2023-04-15T12:59:31;4.00;;;2.90;;
12962;SDS011;6546;49.882;8.666;2023-04-15T13:01:59;3.37;;;3.07;;
12962;SDS011;6546;49.882;8.666;2023-04-15T13:04:26;4.43;;;3.37;;
12962;SDS011;6546;49.882;8.666;2023-04-15T13:06:54;7.00;;;3.97;;
12962;SDS011;6546;49.882;8.666;2023-04-15T13:09:21;4.20;;;3.80;;
12962;SDS011;6546;49.882;8.666;2023-04-15T13:11:48;3.87;;;3.57;;
12962;SDS011;6546;49.882;8.666;2023-04-15T13:14:15;4.03;;;3.63;;
12962;SDS011;6546;49.882;8.666;2023-04-15T13:16:41;3.83;;;3.53;;
12962;SDS011;6546;49.882;8.666;2023-04-15T13:19:09;5.03;;;3.97;;
12962;SDS011;6546;49.882;8.666;2023-04-15T13:21:35;4.20;;;3.80;;
12962;SDS011;6546;49.882;8.666;2023-04-15T13:24:02;3.67;;;3.37;;
12962;SDS011;6546;49.882;8.666;2023-04-15T13:26:30;5.47;;;3.90;;
12962;SDS011;6546;49.882;8.666;2023-04-15T13:28:57;3.37;;;3.00;;
12962;SDS011;6546;49.882;8.666;2023-04-15T13:31:24;4.00;;;3.70;;
12962;SDS011;6546;49.882;8.666;2023-04-15T13:33:51;4.67;;;4.27;;
12962;SDS011;6546;49.882;8.666;2023-04-15T13:36:19;5.30;;;3.40;;
12962;SDS011;6546;49.882;8.666;2023-04-15T13:38:45;3.50;;;3.20;;
12962;SDS011;6546;49.882;8.666;2023-04-15T13:41:12;3.33;;;2.70;;
12962;SDS011;6546;49.882;8.666;2023-04-15T13:43:38;2.80;;;2.60;;
12962;SDS011;6546;49.882;8.666;2023-04-15T13:46:05;3.20;;;2.90;;
12962;SDS011;6546;49.882;8.666;2023-04-15T13:48:32;3.30;;;3.00;;
12962;SDS011;6546;49.882;8.666;2023-04-15T13:50:58;2.80;;;2.60;;
12962;SDS011;6546;49.882;8.666;2023-04-15T13:53:26;2.43;;;2.23;;
12962;SDS011;6546;49.882;8.666;2023-04-15T13:55:54;1.70;;;1.60;;
12962;SDS011;6546;49.882;8.666;2023-04-15T13:58:20;2.17;;;1.97;;
12962;SDS011;6546;49.882;8.666;2023-04-15T14:00:47;2.10;;;1.90;;
12962;SDS011;6546;49.882;8.666;2023-04-15T14:03:13;1.77;;;1.67;;
12962;SDS011;6546;49.882;8.666;2023-04-15T14:05:40;1.50;;;1.40;;
12962;SDS011;6546;49.882;8.666;2023-04-15T14:08:07;1.80;;;1.70;;
12962;SDS011;6546;49.882;8.666;2023-04-15T14:10:35;3.30;;;2.07;;
12962;SDS011;6546;49.882;8.666;2023-04-15T14:13:03;2.13;;;1.83;;
12962;SDS011;6546;49.882;8.666;2023-04-15T14:15:29;1.80;;;1.67;;
12962;SDS011;6546;49.882;8.666;2023-04-15T14:17:58;2.50;;;2.30;;
12962;SDS011;6546;49.882;8.666;2023-04-15T14:20:24;3.70;;;2.63;;
12962;SDS011;6546;49.882;8.666;2023-04-15T14:22:51;2.17;;;1.80;;
12962;SDS011;6546;49.882;8.666;2023-04-15T14:25:17;1.83;;;1.50;;
12962;SDS011;6546;49.882;8.666;2023-04-15T14:27:45;1.30;;;1.20;;
12962;SDS011;6546;49.882;8.666;2023-04-15T14:30:12;1.30;;;1.20;;
12962;SDS011;6546;49.882;8.666;2023-04-15T14:32:39;1.57;;;1.30;;
12962;SDS011;6546;49.882;8.666;2023-04-15T14:35:05;1.60;;;1.50;;
12962;SDS011;6546;49.882;8.666;2023-04-15T14:37:32;2.30;;;1.60;;
12962;SDS011;6546;49.882;8.666;2023-04-15T14:39:59;1.77;;;1.50;;
12962;SDS011;6546;49.882;8.666;2023-04-15T14:42:25;1.97;;;1.43;;
12962;SDS011;6546;49.882;8.666;2023-04-15T14:44:53;2.27;;;1.50;;
12962;SDS011;6546;49.882;8.666;2023-04-15T14:47:20;1.50;;;1.40;;
12962;SDS011;6546;49.882;8.666;2023-04-15T14:49:47;1.70;;;1.60;;
12962;SDS011;6546;49.882;8.666;2023-04-15T14:52:13;2.20;;;2.00;;
12962;SDS011;6546;49.882;8.666;2023-04-15T14:54:40;1.73;;;1.63;;
12962;SDS011;6546;49.882;8.666;2023-04-15T14:57:06;2.03;;;1.50;;
12962;SDS011;6546;49.882;8.666;2023-04-15T14:59:33;2.70;;;1.97;;
12962;SDS011;6546;49.882;8.666;2023-04-15T15:02:01;2.20;;;1.77;;